sensor_id;sensor_type;location;lat;lon;timestamp;P1;durP1;ratioP1;P2;durP2;ratioP2
33184;SDS011;19550;42.872;25.494;2023-12-04T00:00:37;11.05;;;7.28;;
33184;SDS011;19550;42.872;25.494;2023-12-04T00:03:04;9.63;;;6.05;;
33184;SDS011;19550;42.872;25.494;2023-12-04T00:05:31;9.50;;;6.35;;
33184;SDS011;19550;42.872;25.494;2023-12-04T00:07:58;8.93;;;5.32;;
33184;SDS011;19550;42.872;25.494;2023-12-04T00:10:25;15.65;;;7.85;;
33184;SDS011;19550;42.872;25.494;2023-12-04T00:12:52;13.52;;;6.60;;
33184;SDS011;19550;42.872;25.494;2023-12-04T00:15:20;11.32;;;5.63;;
33184;SDS011;19550;42.872;25.494;2023-12-04T00:17:47;8.57;;;5.75;;
33184;SDS011;19550;42.872;25.494;2023-12-04T00:20:14;10.98;;;6.90;;
33184;SDS011;19550;42.872;25.494;2023-12-04T00:22:41;13.20;;;8.02;;
33184;SDS011;19550;42.872;25.494;2023-12-04T00:25:08;12.32;;;7.28;;
33184;SDS011;19550;42.872;25.494;2023-12-04T00:27:35;14.00;;;8.85;;
33184;SDS011;19550;42.872;25.494;2023-12-04T00:30:02;16.98;;;7.93;;
33184;SDS011;19550;42.872;25.494;2023-12-04T00:32:31;21.67;;;8.27;;
33184;SDS011;19550;42.872;25.494;2023-12-04T00:34:58;14.57;;;8.32;;
33184;SDS011;19550;42.872;25.494;2023-12-04T00:37:26;14.60;;;8.43;;
33184;SDS011;19550;42.872;25.494;2023-12-04T00:39:53;14.38;;;8.25;;
33184;SDS011;19550;42.872;25.494;2023-12-04T00:42:20;12.25;;;8.23;;
33184;SDS011;19550;42.872;25.494;2023-12-04T00:44:47;12.25;;;8.00;;
33184;SDS011;19550;42.872;25.494;2023-12-04T00:47:14;15.95;;;8.73;;
33184;SDS011;19550;42.872;25.494;2023-12-04T00:49:42;12.48;;;8.02;;
33184;SDS011;19550;42.872;25.494;2023-12-04T00:52:09;12.68;;;7.80;;
33184;SDS011;19550;42.872;25.494;2023-12-04T00:54:38;16.05;;;8.45;;
33184;SDS011;19550;42.872;25.494;2023-12-04T00:57:05;13.30;;;8.18;;
33184;SDS011;19550;42.872;25.494;2023-12-04T00:59:32;15.48;;;8.30;;
33184;SDS011;19550;42.872;25.494;2023-12-04T01:01:59;13.43;;;7.70;;
33184;SDS011;19550;42.872;25.494;2023-12-04T01:04:26;14.30;;;8.45;;
33184;SDS011;19550;42.872;25.494;2023-12-04T01:06:54;13.00;;;8.57;;
33184;SDS011;19550;42.872;25.494;2023-12-04T01:09:21;14.75;;;8.90;;
33184;SDS011;19550;42.872;25.494;2023-12-04T01:11:49;14.20;;;8.82;;
33184;SDS011;19550;42.872;25.494;2023-12-04T01:14:16;13.35;;;8.43;;
33184;SDS011;19550;42.872;25.494;2023-12-04T01:16:43;12.63;;;8.05;;
33184;SDS011;19550;42.872;25.494;2023-12-04T01:19:10;13.15;;;8.32;;
33184;SDS011;19550;42.872;25.494;2023-12-04T01:21:37;13.32;;;8.38;;
33184;SDS011;19550;42.872;25.494;2023-12-04T01:24:05;14.57;;;8.35;;
33184;SDS011;19550;42.872;25.494;2023-12-04T01:26:32;15.13;;;7.93;;
33184;SDS011;19550;42.872;25.494;2023-12-04T01:28:59;14.02;;;8.18;;
33184;SDS011;19550;42.872;25.494;2023-12-04T01:31:26;13.88;;;8.35;;
33184;SDS011;19550;42.872;25.494;2023-12-04T01:33:53;12.52;;;7.88;;
33184;SDS011;19550;42.872;25.494;2023-12-04T01:36:20;14.75;;;8.57;;
33184;SDS011;19550;42.872;25.494;2023-12-04T01:38:46;12.85;;;7.93;;
33184;SDS011;19550;42.872;25.494;2023-12-04T01:41:15;17.15;;;8.38;;
33184;SDS011;19550;42.872;25.494;2023-12-04T01:43:42;18.00;;;9.70;;
33184;SDS011;19550;42.872;25.494;2023-12-04T01:46:09;14.65;;;8.63;;
33184;SDS011;19550;42.872;25.494;2023-12-04T01:48:37;15.45;;;9.20;;
33184;SDS011;19550;42.872;25.494;2023-12-04T01:51:05;16.92;;;9.43;;
33184;SDS011;19550;42.872;25.494;2023-12-04T01:53:36;17.67;;;9.90;;
33184;SDS011;19550;42.872;25.494;2023-12-04T01:58:34;19.52;;;10.50;;
33184;SDS011;19550;42.872;25.494;2023-12-04T02:01:01;17.63;;;10.23;;
33184;SDS011;19550;42.872;25.494;2023-12-04T02:03:28;14.65;;;8.27;;
33184;SDS011;19550;42.872;25.494;2023-12-04T02:05:54;15.05;;;9.57;;
33184;SDS011;19550;42.872;25.494;2023-12-04T02:08:25;13.98;;;8.50;;
33184;SDS011;19550;42.872;25.494;2023-12-04T02:10:52;13.73;;;8.65;;
33184;SDS011;19550;42.872;25.494;2023-12-04T02:13:19;15.20;;;8.23;;
33184;SDS011;19550;42.872;25.494;2023-12-04T02:15:48;14.27;;;8.63;;
33184;SDS011;19550;42.872;25.494;2023-12-04T02:18:18;15.55;;;9.35;;
33184;SDS011;19550;42.872;25.494;2023-12-04T02:20:45;13.80;;;8.65;;
33184;SDS011;19550;42.872;25.494;2023-12-04T02:23:13;13.88;;;8.48;;
33184;SDS011;19550;42.872;25.494;2023-12-04T02:25:41;12.85;;;8.15;;
33184;SDS011;19550;42.872;25.494;2023-12-04T02:28:09;13.45;;;8.07;;
33184;SDS011;19550;42.872;25.494;2023-12-04T02:30:39;13.73;;;7.82;;
33184;SDS011;19550;42.872;25.494;2023-12-04T02:33:09;13.27;;;7.75;;
33184;SDS011;19550;42.872;25.494;2023-12-04T02:35:39;13.45;;;8.32;;
33184;SDS011;19550;42.872;25.494;2023-12-04T02:40:35;12.82;;;8.43;;
33184;SDS011;19550;42.872;25.494;2023-12-04T02:43:04;16.35;;;9.02;;
33184;SDS011;19550;42.872;25.494;2023-12-04T02:45:31;18.10;;;9.48;;
33184;SDS011;19550;42.872;25.494;2023-12-04T02:47:57;14.40;;;8.55;;
33184;SDS011;19550;42.872;25.494;2023-12-04T02:50:24;15.93;;;9.05;;
33184;SDS011;19550;42.872;25.494;2023-12-04T02:52:51;16.20;;;8.85;;
33184;SDS011;19550;42.872;25.494;2023-12-04T02:55:18;15.27;;;9.10;;
33184;SDS011;19550;42.872;25.494;2023-12-04T02:57:46;14.18;;;8.48;;
33184;SDS011;19550;42.872;25.494;2023-12-04T03:00:14;15.25;;;7.97;;
33184;SDS011;19550;42.872;25.494;2023-12-04T03:02:41;12.83;;;7.90;;
33184;SDS011;19550;42.872;25.494;2023-12-04T03:05:09;13.35;;;8.40;;
33184;SDS011;19550;42.872;25.494;2023-12-04T03:07:36;15.35;;;9.25;;
33184;SDS011;19550;42.872;25.494;2023-12-04T03:10:04;15.80;;;9.18;;
33184;SDS011;19550;42.872;25.494;2023-12-04T03:12:32;15.75;;;8.30;;
33184;SDS011;19550;42.872;25.494;2023-12-04T03:14:58;14.27;;;8.52;;
33184;SDS011;19550;42.872;25.494;2023-12-04T03:17:27;16.83;;;9.00;;
33184;SDS011;19550;42.872;25.494;2023-12-04T03:19:54;13.18;;;8.43;;
33184;SDS011;19550;42.872;25.494;2023-12-04T03:22:22;13.13;;;7.93;;
33184;SDS011;19550;42.872;25.494;2023-12-04T03:24:49;12.93;;;8.60;;
33184;SDS011;19550;42.872;25.494;2023-12-04T03:27:16;12.63;;;8.25;;
33184;SDS011;19550;42.872;25.494;2023-12-04T03:29:43;13.32;;;8.45;;
33184;SDS011;19550;42.872;25.494;2023-12-04T03:32:09;15.40;;;8.65;;
33184;SDS011;19550;42.872;25.494;2023-12-04T03:34:38;13.23;;;8.18;;
33184;SDS011;19550;42.872;25.494;2023-12-04T03:37:05;14.43;;;8.77;;
33184;SDS011;19550;42.872;25.494;2023-12-04T03:39:31;15.48;;;8.65;;
33184;SDS011;19550;42.872;25.494;2023-12-04T03:41:58;14.27;;;8.75;;
33184;SDS011;19550;42.872;25.494;2023-12-04T03:44:25;15.63;;;8.40;;
33184;SDS011;19550;42.872;25.494;2023-12-04T03:46:52;13.05;;;7.78;;
33184;SDS011;19550;42.872;25.494;2023-12-04T03:49:19;13.80;;;8.38;;
33184;SDS011;19550;42.872;25.494;2023-12-04T03:51:47;17.10;;;9.65;;
33184;SDS011;19550;42.872;25.494;2023-12-04T03:54:14;15.25;;;8.32;;
33184;SDS011;19550;42.872;25.494;2023-12-04T03:56:41;13.13;;;8.60;;
33184;SDS011;19550;42.872;25.494;2023-12-04T03:59:08;15.65;;;9.10;;
33184;SDS011;19550;42.872;25.494;2023-12-04T04:01:35;16.25;;;8.82;;
33184;SDS011;19550;42.872;25.494;2023-12-04T04:04:02;14.73;;;8.50;;
33184;SDS011;19550;42.872;25.494;2023-12-04T04:06:29;16.17;;;9.10;;
33184;SDS011;19550;42.872;25.494;2023-12-04T04:08:57;16.85;;;9.13;;
33184;SDS011;19550;42.872;25.494;2023-12-04T04:11:24;16.20;;;9.65;;
33184;SDS011;19550;42.872;25.494;2023-12-04T04:13:51;12.77;;;8.18;;
33184;SDS011;19550;42.872;25.494;2023-12-04T04:16:17;13.65;;;8.32;;
33184;SDS011;19550;42.872;25.494;2023-12-04T04:18:44;14.70;;;8.52;;
33184;SDS011;19550;42.872;25.494;2023-12-04T04:21:11;15.05;;;9.13;;
33184;SDS011;19550;42.872;25.494;2023-12-04T04:23:38;14.60;;;8.82;;
33184;SDS011;19550;42.872;25.494;2023-12-04T04:26:07;14.32;;;8.80;;
33184;SDS011;19550;42.872;25.494;2023-12-04T04:28:33;14.57;;;8.25;;
33184;SDS011;19550;42.872;25.494;2023-12-04T04:31:00;15.20;;;8.50;;
33184;SDS011;19550;42.872;25.494;2023-12-04T04:33:27;16.13;;;8.80;;
33184;SDS011;19550;42.872;25.494;2023-12-04T04:35:56;14.35;;;8.15;;
33184;SDS011;19550;42.872;25.494;2023-12-04T04:38:23;16.08;;;8.60;;
33184;SDS011;19550;42.872;25.494;2023-12-04T04:40:50;18.63;;;9.55;;
33184;SDS011;19550;42.872;25.494;2023-12-04T04:43:19;17.10;;;9.48;;
33184;SDS011;19550;42.872;25.494;2023-12-04T04:45:46;15.48;;;8.55;;
33184;SDS011;19550;42.872;25.494;2023-12-04T04:48:13;13.05;;;8.40;;
33184;SDS011;19550;42.872;25.494;2023-12-04T04:50:40;15.57;;;8.88;;
33184;SDS011;19550;42.872;25.494;2023-12-04T04:53:06;14.02;;;8.32;;
33184;SDS011;19550;42.872;25.494;2023-12-04T04:55:33;14.63;;;7.88;;
33184;SDS011;19550;42.872;25.494;2023-12-04T04:58:05;13.30;;;7.68;;
33184;SDS011;19550;42.872;25.494;2023-12-04T05:00:33;16.48;;;8.93;;
33184;SDS011;19550;42.872;25.494;2023-12-04T05:03:00;50.22;;;23.98;;
33184;SDS011;19550;42.872;25.494;2023-12-04T05:05:27;63.15;;;35.20;;
33184;SDS011;19550;42.872;25.494;2023-12-04T05:07:54;44.90;;;24.83;;
33184;SDS011;19550;42.872;25.494;2023-12-04T05:10:20;37.65;;;20.05;;
33184;SDS011;19550;42.872;25.494;2023-12-04T05:12:47;36.80;;;20.83;;
33184;SDS011;19550;42.872;25.494;2023-12-04T05:15:14;34.10;;;17.67;;
33184;SDS011;19550;42.872;25.494;2023-12-04T05:17:42;34.60;;;18.52;;
33184;SDS011;19550;42.872;25.494;2023-12-04T05:20:09;33.65;;;17.83;;
33184;SDS011;19550;42.872;25.494;2023-12-04T05:22:36;34.75;;;18.98;;
33184;SDS011;19550;42.872;25.494;2023-12-04T05:25:04;36.78;;;21.42;;
33184;SDS011;19550;42.872;25.494;2023-12-04T05:27:31;38.20;;;21.70;;
33184;SDS011;19550;42.872;25.494;2023-12-04T05:29:58;27.13;;;15.05;;
33184;SDS011;19550;42.872;25.494;2023-12-04T05:32:25;26.73;;;15.32;;
33184;SDS011;19550;42.872;25.494;2023-12-04T05:34:53;30.17;;;16.80;;
33184;SDS011;19550;42.872;25.494;2023-12-04T05:37:20;28.90;;;16.35;;
33184;SDS011;19550;42.872;25.494;2023-12-04T05:39:46;27.55;;;15.30;;
33184;SDS011;19550;42.872;25.494;2023-12-04T05:42:13;22.25;;;13.85;;
33184;SDS011;19550;42.872;25.494;2023-12-04T05:44:40;25.33;;;16.05;;
33184;SDS011;19550;42.872;25.494;2023-12-04T05:47:07;24.02;;;13.68;;
33184;SDS011;19550;42.872;25.494;2023-12-04T05:49:35;20.60;;;12.75;;
33184;SDS011;19550;42.872;25.494;2023-12-04T05:52:03;24.90;;;13.35;;
33184;SDS011;19550;42.872;25.494;2023-12-04T05:54:30;25.52;;;13.95;;
33184;SDS011;19550;42.872;25.494;2023-12-04T05:56:57;62.92;;;40.67;;
33184;SDS011;19550;42.872;25.494;2023-12-04T05:59:24;96.18;;;49.75;;
33184;SDS011;19550;42.872;25.494;2023-12-04T06:01:50;25.23;;;15.27;;
33184;SDS011;19550;42.872;25.494;2023-12-04T06:04:17;24.90;;;14.00;;
33184;SDS011;19550;42.872;25.494;2023-12-04T06:06:44;22.77;;;13.23;;
33184;SDS011;19550;42.872;25.494;2023-12-04T06:09:12;26.67;;;14.43;;
33184;SDS011;19550;42.872;25.494;2023-12-04T06:11:40;25.33;;;13.82;;
33184;SDS011;19550;42.872;25.494;2023-12-04T06:14:07;23.73;;;14.00;;
33184;SDS011;19550;42.872;25.494;2023-12-04T06:16:34;20.75;;;12.45;;
33184;SDS011;19550;42.872;25.494;2023-12-04T06:19:00;22.23;;;12.68;;
33184;SDS011;19550;42.872;25.494;2023-12-04T06:21:27;25.48;;;13.27;;
33184;SDS011;19550;42.872;25.494;2023-12-04T06:23:54;23.85;;;13.95;;
33184;SDS011;19550;42.872;25.494;2023-12-04T06:26:24;24.35;;;14.00;;
33184;SDS011;19550;42.872;25.494;2023-12-04T06:28:51;25.92;;;15.32;;
33184;SDS011;19550;42.872;25.494;2023-12-04T06:31:19;29.25;;;16.75;;
33184;SDS011;19550;42.872;25.494;2023-12-04T06:33:46;24.33;;;14.60;;
33184;SDS011;19550;42.872;25.494;2023-12-04T06:36:13;32.95;;;17.10;;
33184;SDS011;19550;42.872;25.494;2023-12-04T06:38:43;27.38;;;15.35;;
33184;SDS011;19550;42.872;25.494;2023-12-04T06:41:14;24.08;;;14.30;;
33184;SDS011;19550;42.872;25.494;2023-12-04T06:43:44;23.60;;;13.68;;
33184;SDS011;19550;42.872;25.494;2023-12-04T06:46:11;29.57;;;15.70;;
33184;SDS011;19550;42.872;25.494;2023-12-04T06:48:41;24.83;;;14.57;;
33184;SDS011;19550;42.872;25.494;2023-12-04T06:51:09;28.50;;;15.40;;
33184;SDS011;19550;42.872;25.494;2023-12-04T06:53:36;24.13;;;13.80;;
33184;SDS011;19550;42.872;25.494;2023-12-04T06:56:03;26.75;;;14.63;;
33184;SDS011;19550;42.872;25.494;2023-12-04T06:58:31;23.17;;;14.73;;
33184;SDS011;19550;42.872;25.494;2023-12-04T07:00:59;23.13;;;13.52;;
33184;SDS011;19550;42.872;25.494;2023-12-04T07:03:27;25.92;;;15.40;;
33184;SDS011;19550;42.872;25.494;2023-12-04T07:05:54;25.38;;;14.45;;
33184;SDS011;19550;42.872;25.494;2023-12-04T07:08:21;20.92;;;12.63;;
33184;SDS011;19550;42.872;25.494;2023-12-04T07:10:47;25.05;;;15.43;;
33184;SDS011;19550;42.872;25.494;2023-12-04T07:13:14;21.20;;;12.70;;
33184;SDS011;19550;42.872;25.494;2023-12-04T07:15:41;19.25;;;11.55;;
33184;SDS011;19550;42.872;25.494;2023-12-04T07:18:09;19.55;;;11.10;;
33184;SDS011;19550;42.872;25.494;2023-12-04T07:20:36;19.48;;;10.43;;
33184;SDS011;19550;42.872;25.494;2023-12-04T07:23:03;14.70;;;8.35;;
33184;SDS011;19550;42.872;25.494;2023-12-04T07:25:30;38.75;;;22.58;;
33184;SDS011;19550;42.872;25.494;2023-12-04T07:27:57;18.45;;;12.13;;
33184;SDS011;19550;42.872;25.494;2023-12-04T07:30:24;15.07;;;7.88;;
33184;SDS011;19550;42.872;25.494;2023-12-04T07:32:51;12.23;;;8.38;;
33184;SDS011;19550;42.872;25.494;2023-12-04T07:35:20;14.73;;;9.38;;
33184;SDS011;19550;42.872;25.494;2023-12-04T07:37:46;12.15;;;6.50;;
33184;SDS011;19550;42.872;25.494;2023-12-04T07:40:14;12.25;;;7.47;;
33184;SDS011;19550;42.872;25.494;2023-12-04T07:42:42;11.88;;;7.13;;
33184;SDS011;19550;42.872;25.494;2023-12-04T07:45:09;12.60;;;6.68;;
33184;SDS011;19550;42.872;25.494;2023-12-04T07:47:37;11.43;;;6.88;;
33184;SDS011;19550;42.872;25.494;2023-12-04T07:50:04;12.05;;;6.72;;
33184;SDS011;19550;42.872;25.494;2023-12-04T07:52:33;21.83;;;10.43;;
33184;SDS011;19550;42.872;25.494;2023-12-04T07:55:00;13.00;;;6.70;;
33184;SDS011;19550;42.872;25.494;2023-12-04T07:57:27;15.18;;;7.88;;
33184;SDS011;19550;42.872;25.494;2023-12-04T07:59:53;22.75;;;10.57;;
33184;SDS011;19550;42.872;25.494;2023-12-04T08:02:20;11.27;;;6.53;;
33184;SDS011;19550;42.872;25.494;2023-12-04T08:04:47;10.88;;;6.85;;
33184;SDS011;19550;42.872;25.494;2023-12-04T08:07:14;11.27;;;6.38;;
33184;SDS011;19550;42.872;25.494;2023-12-04T08:09:42;8.68;;;5.43;;
33184;SDS011;19550;42.872;25.494;2023-12-04T08:12:09;11.05;;;6.65;;
33184;SDS011;19550;42.872;25.494;2023-12-04T08:14:36;65.80;;;43.33;;
33184;SDS011;19550;42.872;25.494;2023-12-04T08:17:03;27.33;;;17.23;;
33184;SDS011;19550;42.872;25.494;2023-12-04T08:19:30;11.70;;;7.22;;
33184;SDS011;19550;42.872;25.494;2023-12-04T08:21:57;9.27;;;6.20;;
33184;SDS011;19550;42.872;25.494;2023-12-04T08:24:24;9.45;;;5.82;;
33184;SDS011;19550;42.872;25.494;2023-12-04T08:26:53;10.95;;;6.03;;
33184;SDS011;19550;42.872;25.494;2023-12-04T08:29:19;12.02;;;7.03;;
33184;SDS011;19550;42.872;25.494;2023-12-04T08:31:46;13.20;;;7.72;;
33184;SDS011;19550;42.872;25.494;2023-12-04T08:34:13;16.58;;;9.35;;
33184;SDS011;19550;42.872;25.494;2023-12-04T08:36:40;15.40;;;9.73;;
33184;SDS011;19550;42.872;25.494;2023-12-04T08:39:07;16.00;;;10.23;;
33184;SDS011;19550;42.872;25.494;2023-12-04T08:41:34;15.15;;;8.73;;
33184;SDS011;19550;42.872;25.494;2023-12-04T08:44:02;14.95;;;9.25;;
33184;SDS011;19550;42.872;25.494;2023-12-04T08:46:29;10.85;;;6.50;;
33184;SDS011;19550;42.872;25.494;2023-12-04T08:48:56;9.32;;;5.90;;
33184;SDS011;19550;42.872;25.494;2023-12-04T08:51:23;12.85;;;8.27;;
33184;SDS011;19550;42.872;25.494;2023-12-04T08:53:49;14.98;;;8.98;;
33184;SDS011;19550;42.872;25.494;2023-12-04T08:56:16;16.15;;;10.32;;
33184;SDS011;19550;42.872;25.494;2023-12-04T08:58:43;21.23;;;13.20;;
33184;SDS011;19550;42.872;25.494;2023-12-04T09:01:11;20.23;;;11.98;;
33184;SDS011;19550;42.872;25.494;2023-12-04T09:03:38;24.65;;;14.77;;
33184;SDS011;19550;42.872;25.494;2023-12-04T09:06:05;90.05;;;45.05;;
33184;SDS011;19550;42.872;25.494;2023-12-04T09:08:32;10.73;;;6.78;;
33184;SDS011;19550;42.872;25.494;2023-12-04T09:11:01;25.23;;;14.85;;
33184;SDS011;19550;42.872;25.494;2023-12-04T09:13:28;42.03;;;23.98;;
33184;SDS011;19550;42.872;25.494;2023-12-04T09:15:56;30.75;;;19.60;;
33184;SDS011;19550;42.872;25.494;2023-12-04T09:18:25;8.80;;;5.72;;
33184;SDS011;19550;42.872;25.494;2023-12-04T09:20:51;9.70;;;5.88;;
33184;SDS011;19550;42.872;25.494;2023-12-04T09:23:18;9.98;;;6.45;;
33184;SDS011;19550;42.872;25.494;2023-12-04T09:25:45;12.35;;;7.22;;
33184;SDS011;19550;42.872;25.494;2023-12-04T09:28:12;12.30;;;7.15;;
33184;SDS011;19550;42.872;25.494;2023-12-04T09:30:39;9.63;;;6.25;;
33184;SDS011;19550;42.872;25.494;2023-12-04T09:33:06;12.50;;;6.72;;
33184;SDS011;19550;42.872;25.494;2023-12-04T09:35:34;10.80;;;6.60;;
33184;SDS011;19550;42.872;25.494;2023-12-04T09:38:01;12.35;;;6.93;;
33184;SDS011;19550;42.872;25.494;2023-12-04T09:40:28;11.07;;;6.70;;
33184;SDS011;19550;42.872;25.494;2023-12-04T09:42:55;14.90;;;6.80;;
33184;SDS011;19550;42.872;25.494;2023-12-04T09:45:23;13.40;;;8.65;;
33184;SDS011;19550;42.872;25.494;2023-12-04T09:47:50;13.23;;;8.93;;
33184;SDS011;19550;42.872;25.494;2023-12-04T09:50:17;28.63;;;15.05;;
33184;SDS011;19550;42.872;25.494;2023-12-04T09:55:15;13.93;;;7.95;;
33184;SDS011;19550;42.872;25.494;2023-12-04T09:57:43;12.35;;;6.50;;
33184;SDS011;19550;42.872;25.494;2023-12-04T10:00:14;8.10;;;5.40;;
33184;SDS011;19550;42.872;25.494;2023-12-04T10:02:41;11.68;;;7.43;;
33184;SDS011;19550;42.872;25.494;2023-12-04T10:05:08;10.20;;;6.18;;
33184;SDS011;19550;42.872;25.494;2023-12-04T10:07:36;8.68;;;5.80;;
33184;SDS011;19550;42.872;25.494;2023-12-04T10:10:05;8.85;;;5.88;;
33184;SDS011;19550;42.872;25.494;2023-12-04T10:12:33;8.30;;;5.47;;
33184;SDS011;19550;42.872;25.494;2023-12-04T10:15:05;8.85;;;5.20;;
33184;SDS011;19550;42.872;25.494;2023-12-04T10:17:33;12.15;;;7.60;;
33184;SDS011;19550;42.872;25.494;2023-12-04T10:20:04;10.10;;;5.78;;
33184;SDS011;19550;42.872;25.494;2023-12-04T10:22:36;12.73;;;8.25;;
33184;SDS011;19550;42.872;25.494;2023-12-04T10:25:14;20.92;;;11.32;;
33184;SDS011;19550;42.872;25.494;2023-12-04T10:27:43;10.02;;;6.60;;
33184;SDS011;19550;42.872;25.494;2023-12-04T10:30:21;14.68;;;7.80;;
33184;SDS011;19550;42.872;25.494;2023-12-04T10:32:49;9.80;;;5.75;;
33184;SDS011;19550;42.872;25.494;2023-12-04T10:35:20;10.70;;;6.65;;
33184;SDS011;19550;42.872;25.494;2023-12-04T10:37:47;9.60;;;5.65;;
33184;SDS011;19550;42.872;25.494;2023-12-04T10:40:23;8.40;;;5.35;;
33184;SDS011;19550;42.872;25.494;2023-12-04T10:42:50;9.60;;;5.55;;
33184;SDS011;19550;42.872;25.494;2023-12-04T10:45:17;10.15;;;6.22;;
33184;SDS011;19550;42.872;25.494;2023-12-04T10:50:15;8.15;;;4.70;;
33184;SDS011;19550;42.872;25.494;2023-12-04T10:52:43;33.00;;;16.15;;
33184;SDS011;19550;42.872;25.494;2023-12-04T10:55:12;12.17;;;7.20;;
33184;SDS011;19550;42.872;25.494;2023-12-04T10:57:40;10.48;;;6.47;;
33184;SDS011;19550;42.872;25.494;2023-12-04T11:00:10;7.22;;;5.03;;
33184;SDS011;19550;42.872;25.494;2023-12-04T11:02:42;7.05;;;4.88;;
33184;SDS011;19550;42.872;25.494;2023-12-04T11:05:14;7.20;;;5.13;;
33184;SDS011;19550;42.872;25.494;2023-12-04T11:07:46;12.38;;;7.30;;
33184;SDS011;19550;42.872;25.494;2023-12-04T11:10:16;7.45;;;5.03;;
33184;SDS011;19550;42.872;25.494;2023-12-04T11:12:46;7.80;;;5.10;;
33184;SDS011;19550;42.872;25.494;2023-12-04T11:15:19;7.68;;;5.00;;
33184;SDS011;19550;42.872;25.494;2023-12-04T11:17:51;8.57;;;5.80;;
33184;SDS011;19550;42.872;25.494;2023-12-04T11:20:24;7.20;;;5.15;;
33184;SDS011;19550;42.872;25.494;2023-12-04T11:22:53;9.02;;;5.00;;
33184;SDS011;19550;42.872;25.494;2023-12-04T11:25:21;160.02;;;55.90;;
33184;SDS011;19550;42.872;25.494;2023-12-04T11:27:51;8.60;;;5.00;;
33184;SDS011;19550;42.872;25.494;2023-12-04T11:32:46;17.67;;;8.57;;
33184;SDS011;19550;42.872;25.494;2023-12-04T11:35:16;20.08;;;12.30;;
33184;SDS011;19550;42.872;25.494;2023-12-04T11:37:43;8.90;;;5.43;;
33184;SDS011;19550;42.872;25.494;2023-12-04T11:40:11;10.55;;;6.95;;
33184;SDS011;19550;42.872;25.494;2023-12-04T11:42:39;8.23;;;5.47;;
33184;SDS011;19550;42.872;25.494;2023-12-04T11:45:08;6.80;;;4.82;;
33184;SDS011;19550;42.872;25.494;2023-12-04T11:47:48;9.20;;;6.05;;
33184;SDS011;19550;42.872;25.494;2023-12-04T11:50:16;25.17;;;18.40;;
33184;SDS011;19550;42.872;25.494;2023-12-04T11:52:44;12.60;;;8.07;;
33184;SDS011;19550;42.872;25.494;2023-12-04T11:55:11;9.20;;;6.35;;
33184;SDS011;19550;42.872;25.494;2023-12-04T11:57:41;18.75;;;14.70;;
33184;SDS011;19550;42.872;25.494;2023-12-04T12:00:11;9.15;;;6.05;;
33184;SDS011;19550;42.872;25.494;2023-12-04T12:02:46;9.70;;;6.18;;
33184;SDS011;19550;42.872;25.494;2023-12-04T12:05:14;9.23;;;6.03;;
33184;SDS011;19550;42.872;25.494;2023-12-04T12:07:41;10.20;;;5.90;;
33184;SDS011;19550;42.872;25.494;2023-12-04T12:10:09;9.73;;;6.05;;
33184;SDS011;19550;42.872;25.494;2023-12-04T12:12:49;10.13;;;5.57;;
33184;SDS011;19550;42.872;25.494;2023-12-04T12:15:32;11.15;;;6.90;;
33184;SDS011;19550;42.872;25.494;2023-12-04T12:17:59;10.20;;;6.50;;
33184;SDS011;19550;42.872;25.494;2023-12-04T12:20:26;11.13;;;6.28;;
33184;SDS011;19550;42.872;25.494;2023-12-04T12:22:53;11.13;;;6.00;;
33184;SDS011;19550;42.872;25.494;2023-12-04T12:25:28;13.00;;;7.45;;
33184;SDS011;19550;42.872;25.494;2023-12-04T12:27:55;15.10;;;7.57;;
33184;SDS011;19550;42.872;25.494;2023-12-04T12:30:22;12.00;;;7.50;;
33184;SDS011;19550;42.872;25.494;2023-12-04T12:32:51;13.00;;;8.18;;
33184;SDS011;19550;42.872;25.494;2023-12-04T12:35:18;13.43;;;8.45;;
33184;SDS011;19550;42.872;25.494;2023-12-04T12:37:45;15.57;;;10.98;;
33184;SDS011;19550;42.872;25.494;2023-12-04T12:40:12;11.80;;;6.85;;
33184;SDS011;19550;42.872;25.494;2023-12-04T12:42:40;10.15;;;6.20;;
33184;SDS011;19550;42.872;25.494;2023-12-04T12:45:08;11.27;;;7.68;;
33184;SDS011;19550;42.872;25.494;2023-12-04T12:47:37;11.15;;;7.15;;
33184;SDS011;19550;42.872;25.494;2023-12-04T12:50:07;10.77;;;6.72;;
33184;SDS011;19550;42.872;25.494;2023-12-04T12:52:38;13.40;;;8.40;;
33184;SDS011;19550;42.872;25.494;2023-12-04T12:55:05;11.00;;;7.25;;
33184;SDS011;19550;42.872;25.494;2023-12-04T12:57:33;13.13;;;7.45;;
33184;SDS011;19550;42.872;25.494;2023-12-04T13:00:00;11.70;;;7.32;;
33184;SDS011;19550;42.872;25.494;2023-12-04T13:02:33;10.82;;;7.53;;
33184;SDS011;19550;42.872;25.494;2023-12-04T13:05:01;14.75;;;8.95;;
33184;SDS011;19550;42.872;25.494;2023-12-04T13:07:31;13.02;;;7.80;;
33184;SDS011;19550;42.872;25.494;2023-12-04T13:09:58;13.90;;;7.63;;
33184;SDS011;19550;42.872;25.494;2023-12-04T13:12:24;12.48;;;7.55;;
33184;SDS011;19550;42.872;25.494;2023-12-04T13:14:51;13.60;;;8.30;;
33184;SDS011;19550;42.872;25.494;2023-12-04T13:17:18;13.85;;;7.10;;
33184;SDS011;19550;42.872;25.494;2023-12-04T13:19:45;12.77;;;7.05;;
33184;SDS011;19550;42.872;25.494;2023-12-04T13:22:12;12.93;;;8.68;;
33184;SDS011;19550;42.872;25.494;2023-12-04T13:24:40;17.92;;;12.65;;
33184;SDS011;19550;42.872;25.494;2023-12-04T13:27:07;19.05;;;13.65;;
33184;SDS011;19550;42.872;25.494;2023-12-04T13:29:34;19.20;;;12.52;;
33184;SDS011;19550;42.872;25.494;2023-12-04T13:32:01;19.35;;;9.63;;
33184;SDS011;19550;42.872;25.494;2023-12-04T13:34:29;11.48;;;6.80;;
33184;SDS011;19550;42.872;25.494;2023-12-04T13:36:56;15.52;;;8.63;;
33184;SDS011;19550;42.872;25.494;2023-12-04T13:39:23;26.63;;;17.52;;
33184;SDS011;19550;42.872;25.494;2023-12-04T13:42:03;44.60;;;25.02;;
33184;SDS011;19550;42.872;25.494;2023-12-04T13:44:47;34.45;;;20.20;;
33184;SDS011;19550;42.872;25.494;2023-12-04T13:47:14;40.80;;;28.48;;
33184;SDS011;19550;42.872;25.494;2023-12-04T13:49:41;24.58;;;17.30;;
33184;SDS011;19550;42.872;25.494;2023-12-04T13:52:11;18.50;;;10.73;;
33184;SDS011;19550;42.872;25.494;2023-12-04T13:54:38;84.80;;;32.72;;
33184;SDS011;19550;42.872;25.494;2023-12-04T13:57:12;101.03;;;40.28;;
33184;SDS011;19550;42.872;25.494;2023-12-04T13:59:44;49.85;;;21.95;;
33184;SDS011;19550;42.872;25.494;2023-12-04T14:02:11;21.73;;;11.98;;
33184;SDS011;19550;42.872;25.494;2023-12-04T14:04:38;41.20;;;21.90;;
33184;SDS011;19550;42.872;25.494;2023-12-04T14:07:05;80.45;;;38.28;;
33184;SDS011;19550;42.872;25.494;2023-12-04T14:09:33;439.35;;;174.05;;
33184;SDS011;19550;42.872;25.494;2023-12-04T14:12:00;741.10;;;345.83;;
33184;SDS011;19550;42.872;25.494;2023-12-04T14:14:30;438.02;;;194.60;;
33184;SDS011;19550;42.872;25.494;2023-12-04T14:19:25;100.03;;;46.03;;
33184;SDS011;19550;42.872;25.494;2023-12-04T14:21:52;62.00;;;35.50;;
33184;SDS011;19550;42.872;25.494;2023-12-04T14:24:18;52.03;;;27.70;;
33184;SDS011;19550;42.872;25.494;2023-12-04T14:26:46;60.08;;;29.80;;
33184;SDS011;19550;42.872;25.494;2023-12-04T14:29:13;63.55;;;32.90;;
33184;SDS011;19550;42.872;25.494;2023-12-04T14:31:41;22.80;;;13.27;;
33184;SDS011;19550;42.872;25.494;2023-12-04T14:34:08;30.70;;;18.13;;
33184;SDS011;19550;42.872;25.494;2023-12-04T14:36:35;20.10;;;13.55;;